Time;durP1;ratioP1;P1;durP2;ratioP2;P2;SDS_P1;SDS_P2;PMS_P1;PMS_P2;Temp;Humidity;BMP_temperature;BMP_pressure;BME280_temperature;BME280_humidity;BME280_pressure;Samples;Min_cycle;Max_cycle;Signal;HPM_P1;HPM_P2
2020/12/08 00:01:07;;;;;;;13.47;7.67;;;;;;;-6.70;81.11;92829.84;1766230;78;21627;-76
2020/12/08 00:03:35;;;;;;;13.33;6.87;;;;;;;-6.69;81.32;92829.33;1810093;78;21135;-78
2020/12/08 00:06:03;;;;;;;16.77;9.20;;;;;;;-6.68;81.37;92819.75;1818217;78;21116;-77
2020/12/08 00:08:31;;;;;;;13.07;7.87;;;;;;;-6.68;81.03;92818.98;1804164;79;21778;-74
2020/12/08 00:10:59;;;;;;;15.37;8.57;;;;;;;-6.69;81.31;92825.36;1812346;79;21179;-76
2020/12/08 00:13:27;;;;;;;20.60;10.27;;;;;;;-6.67;81.39;92823.95;1786424;79;21619;-76
2020/12/08 00:15:56;;;;;;;16.43;8.20;;;;;;;-6.68;80.44;92826.91;1794075;79;21207;-75
2020/12/08 00:18:25;;;;;;;16.27;8.40;;;;;;;-6.78;80.74;92831.89;1808352;78;21183;-79
2020/12/08 00:20:53;;;;;;;14.87;8.13;;;;;;;-6.78;80.67;92833.22;1820656;76;21178;-76
2020/12/08 00:23:21;;;;;;;13.83;8.33;;;;;;;-6.78;80.77;92836.41;1816884;79;21476;-77
2020/12/08 00:25:49;;;;;;;14.50;7.77;;;;;;;-6.78;80.39;92841.69;1769602;77;21268;-75
2020/12/08 00:28:20;;;;;;;13.37;7.80;;;;;;;-6.84;80.87;92838.41;1713352;82;21487;-74
2020/12/08 00:30:48;;;;;;;14.87;8.73;;;;;;;-6.83;81.02;92835.22;1725662;80;21171;-75
2020/12/08 00:33:16;;;;;;;13.47;7.30;;;;;;;-6.81;81.08;92834.36;1763225;77;21151;-77
2020/12/08 00:35:44;;;;;;;15.50;8.37;;;;;;;-6.76;81.29;92836.90;1778186;79;21193;-76
2020/12/08 00:38:14;;;;;;;14.63;8.83;;;;;;;-6.71;81.12;92832.80;1823473;78;21188;-75
2020/12/08 00:40:42;;;;;;;12.43;8.37;;;;;;;-6.69;81.07;92838.03;1822756;77;21179;-79
2020/12/08 00:43:10;;;;;;;13.13;7.63;;;;;;;-6.66;80.65;92841.38;1765906;78;21157;-76
2020/12/08 00:45:38;;;;;;;12.67;7.80;;;;;;;-6.63;80.83;92838.13;1776976;77;21167;-77
2020/12/08 00:48:06;;;;;;;14.87;8.80;;;;;;;-6.57;80.75;92847.28;1793545;78;21279;-76
2020/12/08 00:50:36;;;;;;;13.10;8.67;;;;;;;-6.55;80.70;92847.20;1804492;78;21193;-81
2020/12/08 00:53:04;;;;;;;11.70;7.63;;;;;;;-6.51;80.15;92839.44;1729416;78;21175;-77
2020/12/08 00:55:32;;;;;;;10.90;7.33;;;;;;;-6.53;79.94;92838.98;1759828;81;21166;-76
2020/12/08 00:58:00;;;;;;;14.17;7.77;;;;;;;-6.60;79.91;92836.21;1794162;79;21025;-78
2020/12/08 01:00:29;;;;;;;13.40;7.87;;;;;;;-6.65;80.02;92838.98;1780450;80;21171;-75
2020/12/08 01:02:58;;;;;;;12.27;6.70;;;;;;;-6.70;79.60;92843.61;1764892;80;21329;-75
2020/12/08 01:05:27;;;;;;;14.37;8.20;;;;;;;-6.75;79.82;92837.91;1769432;81;22271;-76
2020/12/08 01:07:57;;;;;;;12.27;7.70;;;;;;;-6.79;79.49;92836.17;1806055;79;21116;-78
2020/12/08 01:10:27;;;;;;;13.10;7.77;;;;;;;-6.90;79.66;92833.77;1803594;79;21116;-79
2020/12/08 01:12:55;;;;;;;14.73;8.07;;;;;;;-6.98;80.57;92833.16;1794887;79;21172;-77
2020/12/08 01:15:25;;;;;;;13.20;8.30;;;;;;;-6.96;81.18;92835.50;1795309;79;21251;-78
2020/12/08 01:17:56;;;;;;;12.67;7.00;;;;;;;-6.92;81.12;92839.91;1796021;77;21468;-76
2020/12/08 01:20:26;;;;;;;10.27;6.07;;;;;;;-6.88;81.06;92835.58;1844630;77;21494;-75
2020/12/08 01:22:54;;;;;;;12.87;7.03;;;;;;;-6.86;81.18;92834.72;1836278;77;21104;-76
2020/12/08 01:25:23;;;;;;;13.90;7.17;;;;;;;-6.84;81.30;92834.44;1803309;79;21100;-75
2020/12/08 01:27:52;;;;;;;11.47;6.80;;;;;;;-6.85;80.82;92831.53;1789489;79;22632;-76
2020/12/08 01:30:20;;;;;;;15.30;8.33;;;;;;;-6.89;81.28;92828.70;1787874;77;21733;-78
2020/12/08 01:32:49;;;;;;;11.20;7.57;;;;;;;-6.89;80.91;92825.29;1850974;76;21108;-76
2020/12/08 01:35:19;;;;;;;14.23;7.87;;;;;;;-6.89;81.29;92822.64;1794923;77;21565;-76
2020/12/08 01:37:48;;;;;;;11.53;6.10;;;;;;;-6.87;80.92;92825.78;1770864;81;21092;-79
2020/12/08 01:40:17;;;;;;;10.33;6.50;;;;;;;-6.94;80.72;92834.67;1783717;79;21728;-77
2020/12/08 01:42:45;;;;;;;12.93;7.30;;;;;;;-7.03;81.21;92842.55;1739850;81;21143;-76
2020/12/08 01:45:14;;;;;;;12.20;7.13;;;;;;;-7.07;81.10;92832.30;1741450;79;21160;-79
2020/12/08 01:47:43;;;;;;;9.83;6.03;;;;;;;-7.10;81.32;92832.38;1809942;78;21134;-76
2020/12/08 01:50:11;;;;;;;10.97;6.13;;;;;;;-7.11;80.45;92838.76;1818772;78;21164;-77
2020/12/08 01:52:40;;;;;;;10.03;5.90;;;;;;;-7.32;80.22;92840.83;1806294;77;21628;-78
2020/12/08 01:55:09;;;;;;;9.57;5.60;;;;;;;-7.50;81.44;92838.02;1799399;78;21071;-75
2020/12/08 01:57:39;;;;;;;10.30;6.40;;;;;;;-7.56;81.57;92833.91;1774778;80;21128;-75
2020/12/08 02:00:10;;;;;;;9.90;6.47;;;;;;;-7.60;82.64;92833.76;1769821;80;21193;-75
2020/12/08 02:02:44;;;;;;;10.63;6.12;;;;;;;-7.50;83.36;92826.69;1772732;81;21116;-77
2020/12/08 02:05:20;;;;;;;11.33;7.17;;;;;;;-7.38;83.34;92830.90;1800868;79;22550;-79
2020/12/08 02:07:49;;;;;;;13.20;7.80;;;;;;;-7.34;83.08;92827.36;1819451;78;21191;-76
2020/12/08 02:10:18;;;;;;;12.97;7.40;;;;;;;-7.41;81.83;92827.02;1796812;78;21054;-78
2020/12/08 02:12:46;;;;;;;11.57;6.80;;;;;;;-7.42;83.08;92833.35;1723484;80;21745;-76
2020/12/08 02:15:16;;;;;;;11.80;6.83;;;;;;;-7.31;83.26;92829.95;1773613;77;21595;-76
2020/12/08 02:17:45;;;;;;;12.93;7.40;;;;;;;-7.18;83.30;92827.05;1814993;78;22159;-77
2020/12/08 02:20:14;;;;;;;8.50;5.70;;;;;;;-7.08;82.83;92814.89;1759486;79;21128;-79
2020/12/08 02:22:43;;;;;;;10.07;5.87;;;;;;;-7.05;81.93;92817.48;1747618;81;21160;-78
2020/12/08 02:25:12;;;;;;;11.57;6.47;;;;;;;-7.07;81.62;92820.41;1726711;81;21109;-80
2020/12/08 02:27:42;;;;;;;12.20;5.70;;;;;;;-7.12;81.16;92820.00;1766762;77;21219;-79
2020/12/08 02:30:11;;;;;;;10.10;6.33;;;;;;;-7.21;81.31;92820.48;1846837;77;21200;-78
2020/12/08 02:32:39;;;;;;;9.87;5.90;;;;;;;-7.23;82.43;92821.31;1770273;79;21198;-77
2020/12/08 02:35:08;;;;;;;12.03;6.87;;;;;;;-7.17;82.39;92822.77;1725118;80;21196;-79
2020/12/08 02:37:37;;;;;;;13.90;7.27;;;;;;;-7.07;82.55;92823.05;1763372;80;21097;-75
2020/12/08 02:40:06;;;;;;;13.67;8.00;;;;;;;-7.02;82.41;92822.18;1790649;79;21155;-75
2020/12/08 02:42:34;;;;;;;11.97;6.47;;;;;;;-7.00;82.40;92818.14;1799377;79;21553;-76
2020/12/08 02:45:03;;;;;;;12.23;7.10;;;;;;;-6.97;82.35;92821.50;1750087;82;21145;-78
2020/12/08 02:47:32;;;;;;;11.13;7.03;;;;;;;-6.97;81.68;92822.83;1760543;80;21225;-77
2020/12/08 02:50:01;;;;;;;10.30;6.47;;;;;;;-7.06;80.38;92825.19;1767319;79;21598;-78
2020/12/08 02:52:32;;;;;;;11.17;7.30;;;;;;;-7.19;81.62;92825.45;1776294;78;21131;-78
2020/12/08 02:55:01;;;;;;;11.80;6.63;;;;;;;-7.17;82.25;92832.02;1733876;79;21815;-78
2020/12/08 02:57:30;;;;;;;11.87;7.87;;;;;;;-7.10;81.77;92822.36;1838528;77;21509;-78
2020/12/08 03:00:00;;;;;;;14.93;7.47;;;;;;;-7.13;80.88;92826.38;1780090;80;21637;-78
2020/12/08 03:02:31;;;;;;;9.90;6.60;;;;;;;-7.19;81.60;92824.91;1811907;78;21170;-76
2020/12/08 03:05:00;;;;;;;9.77;5.57;;;;;;;-7.14;81.82;92832.74;1807483;79;21141;-77
2020/12/08 03:07:29;;;;;;;9.63;6.53;;;;;;;-7.06;81.90;92830.47;1824598;77;21205;-79
2020/12/08 03:09:58;;;;;;;12.50;6.73;;;;;;;-7.02;80.84;92840.14;1835641;77;21174;-77
2020/12/08 03:12:27;;;;;;;11.43;6.67;;;;;;;-7.13;79.71;92829.56;1813470;79;21068;-76
2020/12/08 03:14:55;;;;;;;12.57;6.50;;;;;;;-7.27;79.64;92830.14;1765849;79;21145;-75
2020/12/08 03:17:26;;;;;;;13.67;8.10;;;;;;;-7.41;79.68;92830.97;1830941;77;21689;-76
2020/12/08 03:19:54;;;;;;;10.83;7.60;;;;;;;-7.48;80.51;92825.86;1816251;77;21639;-77
2020/12/08 03:22:24;;;;;;;12.63;7.97;;;;;;;-7.42;80.88;92823.33;1775430;80;21523;-75
2020/12/08 03:24:54;;;;;;;12.40;7.50;;;;;;;-7.38;81.34;92826.94;1797200;79;21093;-76
2020/12/08 03:27:24;;;;;;;10.43;6.43;;;;;;;-7.30;81.63;92824.91;1775253;80;21125;-80
2020/12/08 03:29:54;;;;;;;11.07;6.93;;;;;;;-7.20;81.95;92829.19;1779448;80;21675;-77
2020/12/08 03:32:23;;;;;;;8.97;6.00;;;;;;;-7.15;81.92;92834.34;1802567;79;21398;-80
2020/12/08 03:34:52;;;;;;;9.13;6.43;;;;;;;-7.10;81.98;92835.57;1820032;78;21151;-78
2020/12/08 03:37:21;;;;;;;13.37;6.40;;;;;;;-7.03;82.48;92840.42;1812321;78;21179;-80
2020/12/08 03:39:49;;;;;;;10.27;6.23;;;;;;;-6.89;82.39;92835.31;1750923;79;21184;-78
2020/12/08 03:42:18;;;;;;;11.50;7.53;;;;;;;-6.73;82.06;92836.27;1797984;79;21128;-79
2020/12/08 03:44:46;;;;;;;14.50;8.37;;;;;;;-6.66;81.28;92837.95;1753715;79;21635;-78
2020/12/08 03:47:19;;;;;;;12.40;7.97;;;;;;;-6.63;81.34;92838.13;1828413;76;21139;-76
2020/12/08 03:49:47;;;;;;;11.40;7.23;;;;;;;-6.60;81.20;92840.17;1815238;79;21194;-77
2020/12/08 03:52:15;;;;;;;10.23;7.27;;;;;;;-6.58;81.07;92842.53;1834833;78;21161;-77
2020/12/08 03:54:44;;;;;;;14.03;7.63;;;;;;;-6.51;81.09;92846.83;1834481;78;21544;-77
2020/12/08 03:57:13;;;;;;;11.27;7.20;;;;;;;-6.44;81.19;92844.53;1778399;80;21108;-76
2020/12/08 03:59:41;;;;;;;12.40;8.03;;;;;;;-6.33;81.24;92845.61;1817086;78;21172;-78
2020/12/08 04:02:11;;;;;;;12.53;8.20;;;;;;;-6.26;81.25;92838.80;1806453;78;21158;-77
2020/12/08 04:04:39;;;;;;;11.43;7.23;;;;;;;-6.13;81.03;92839.78;1794547;77;21144;-79
2020/12/08 04:07:08;;;;;;;11.60;7.17;;;;;;;-6.02;80.92;92844.27;1787787;79;21159;-78
2020/12/08 04:09:37;;;;;;;10.73;6.83;;;;;;;-5.92;80.76;92835.48;1810792;78;21475;-75
2020/12/08 04:12:06;;;;;;;12.83;7.80;;;;;;;-5.84;80.50;92831.84;1800306;78;21199;-75
2020/12/08 04:14:34;;;;;;;10.17;6.80;;;;;;;-5.78;80.38;92843.87;1746575;80;21137;-76
2020/12/08 04:17:03;;;;;;;10.40;7.00;;;;;;;-5.74;80.37;92851.43;1784852;80;21262;-77
2020/12/08 04:19:31;;;;;;;11.07;7.43;;;;;;;-5.70;80.32;92843.88;1799428;79;21165;-78
2020/12/08 04:22:00;;;;;;;13.10;7.60;;;;;;;-5.63;80.08;92834.16;1804357;78;22463;-76
2020/12/08 04:24:30;;;;;;;11.37;6.47;;;;;;;-5.55;79.32;92841.89;1812010;79;21670;-79
2020/12/08 04:26:58;;;;;;;11.10;6.80;;;;;;;-5.53;78.71;92839.70;1804301;79;21167;-79
2020/12/08 04:29:31;;;;;;;14.10;8.23;;;;;;;-5.56;78.22;92840.34;1802554;79;21190;-78
2020/12/08 04:32:00;;;;;;;11.60;7.60;;;;;;;-5.63;78.24;92848.73;1811601;77;21180;-74
2020/12/08 04:34:28;;;;;;;23.73;14.00;;;;;;;-5.63;78.17;92838.91;1740102;78;21686;-78
2020/12/08 04:37:00;;;;;;;16.13;9.37;;;;;;;-5.63;78.25;92843.44;1845004;77;21586;-77
2020/12/08 04:39:27;;;;;;;22.23;11.47;;;;;;;-5.61;78.34;92842.02;1750143;78;21175;-78
2020/12/08 04:41:55;;;;;;;17.57;9.70;;;;;;;-5.55;78.28;92855.14;1798295;79;21084;-78
2020/12/08 04:44:25;;;;;;;18.70;9.03;;;;;;;-5.51;78.33;92846.81;1799926;79;21115;-79
2020/12/08 04:46:55;;;;;;;18.50;9.50;;;;;;;-5.47;78.11;92843.78;1771523;80;21546;-78
2020/12/08 04:49:25;;;;;;;12.70;7.87;;;;;;;-5.44;78.37;92854.54;1732466;82;21630;-75
2020/12/08 04:51:55;;;;;;;15.50;8.50;;;;;;;-5.42;78.25;92854.99;1743052;81;21169;-76
2020/12/08 04:54:23;;;;;;;12.57;7.93;;;;;;;-5.35;78.29;92856.42;1864530;76;21146;-78
2020/12/08 04:56:51;;;;;;;15.27;8.20;;;;;;;-5.30;77.95;92860.23;1764295;78;21189;-79
2020/12/08 04:59:23;;;;;;;16.07;8.53;;;;;;;-5.28;78.30;92860.17;1734568;80;22086;-75
2020/12/08 05:01:51;;;;;;;15.00;8.77;;;;;;;-5.29;78.51;92857.84;1772407;80;21221;-74
2020/12/08 05:04:25;;;;;;;13.23;8.13;;;;;;;-5.29;78.43;92862.59;1783007;77;21554;-77
2020/12/08 05:07:07;;;;;;;15.08;8.38;;;;;;;-5.28;78.18;92854.09;1849016;77;21174;-78
2020/12/08 05:09:49;;;;;;;19.57;11.13;;;;;;;-5.22;78.16;92856.84;1850918;77;21135;-79
2020/12/08 05:12:24;;;;;;;24.70;14.77;;;;;;;-5.14;77.92;92860.82;1776519;79;22494;-79
2020/12/08 05:14:52;;;;;;;20.17;11.90;;;;;;;-5.08;77.81;92856.12;1799688;79;21197;-76
2020/12/08 05:17:27;;;;;;;18.53;10.97;;;;;;;-5.06;77.43;92855.29;1784274;79;21152;-78
2020/12/08 05:20:05;;;;;;;18.20;10.50;;;;;;;-5.07;77.86;92852.41;1783676;79;21212;-80
2020/12/08 05:22:34;;;;;;;15.10;9.90;;;;;;;-5.05;78.16;92852.86;1771444;79;21489;-80
2020/12/08 05:25:13;;;;;;;11.73;7.80;;;;;;;-5.02;77.92;92848.81;1765368;81;21657;-77
2020/12/08 05:27:43;;;;;;;9.67;6.20;;;;;;;-5.00;77.44;92851.92;1759378;81;21104;-77
2020/12/08 05:30:11;;;;;;;10.53;6.97;;;;;;;-5.08;77.58;92847.40;1723788;80;21160;-78
2020/12/08 05:32:40;;;;;;;11.20;6.50;;;;;;;-5.13;77.83;92848.34;1731042;79;21086;-75
2020/12/08 05:35:09;;;;;;;10.90;6.80;;;;;;;-5.16;78.42;92856.36;1746286;81;21061;-77
2020/12/08 05:37:42;;;;;;;9.50;7.07;;;;;;;-5.16;78.73;92851.05;1803453;77;21217;-79
2020/12/08 05:40:12;;;;;;;13.40;8.00;;;;;;;-5.13;78.81;92855.74;1835650;78;21555;-78
2020/12/08 05:42:44;;;;;;;11.83;7.37;;;;;;;-5.10;78.76;92854.91;1784483;79;21133;-79
2020/12/08 05:45:14;;;;;;;10.43;5.70;;;;;;;-5.07;78.66;92854.28;1771469;80;21190;-80
2020/12/08 05:47:47;;;;;;;8.60;6.10;;;;;;;-5.01;78.37;92854.34;1769474;80;21568;-76
2020/12/08 05:50:16;;;;;;;11.90;6.73;;;;;;;-5.02;78.21;92860.75;1766588;80;22540;-77
2020/12/08 05:52:51;;;;;;;14.17;7.73;;;;;;;-5.01;78.33;92854.34;1746486;80;21219;-75
2020/12/08 05:55:24;;;;;;;11.22;6.90;;;;;;;-4.98;78.28;92850.53;1728619;81;21184;-76
2020/12/08 05:57:52;;;;;;;13.53;7.27;;;;;;;-4.89;78.08;92861.94;1799492;79;21210;-77
2020/12/08 06:00:29;;;;;;;14.30;8.00;;;;;;;-4.82;78.34;92859.34;1790947;78;21206;-78
2020/12/08 06:03:15;;;;;;;11.57;6.97;;;;;;;-4.77;78.51;92864.50;1857499;77;21594;-78
2020/12/08 06:05:46;;;;;;;10.87;7.20;;;;;;;-4.77;78.27;92859.98;1829314;77;21199;-80
2020/12/08 06:08:17;;;;;;;10.33;6.73;;;;;;;-4.80;78.35;92880.49;1818199;78;21178;-78
2020/12/08 06:10:54;;;;;;;9.20;5.83;;;;;;;-4.78;78.41;92884.14;1802858;79;21128;-81
2020/12/08 06:13:31;;;;;;;9.67;6.50;;;;;;;-4.75;78.73;92873.69;1847661;77;21159;-77
2020/12/08 06:16:03;;;;;;;11.80;7.30;;;;;;;-4.70;78.75;92873.55;1788875;79;21187;-78
2020/12/08 06:18:36;;;;;;;11.53;7.07;;;;;;;-4.71;78.28;92877.28;1827712;77;21159;-80
2020/12/08 06:21:07;;;;;;;9.13;5.83;;;;;;;-4.72;78.22;92882.36;1802106;79;21132;-81
2020/12/08 06:23:35;;;;;;;15.23;7.23;;;;;;;-4.65;77.93;92884.00;1769903;80;21167;-80
2020/12/08 06:26:04;;;;;;;11.70;8.90;;;;;;;-4.60;77.75;92883.05;1780825;80;21192;-77
2020/12/08 06:28:32;;;;;;;11.37;7.57;;;;;;;-4.57;78.00;92888.28;1715580;83;21259;-76
2020/12/08 06:31:08;;;;;;;9.77;6.93;;;;;;;-4.56;77.93;92885.31;1829718;78;21269;-79
2020/12/08 06:33:48;;;;;;;10.20;6.63;;;;;;;-4.57;77.84;92885.08;1802555;79;21119;-80
2020/12/08 06:36:24;;;;;;;10.67;6.17;;;;;;;-4.57;77.91;92890.94;1782609;79;21614;-78
2020/12/08 06:39:03;;;;;;;9.80;6.60;;;;;;;-4.62;78.32;92891.88;1803158;79;21129;-77
2020/12/08 06:41:33;;;;;;;16.07;8.43;;;;;;;-4.62;78.51;92893.77;1774855;77;21214;-80
2020/12/08 06:44:04;;;;;;;12.80;6.93;;;;;;;-4.61;78.61;92893.98;1810869;78;21199;-79
2020/12/08 06:46:33;;;;;;;13.97;8.60;;;;;;;-4.59;78.70;92896.55;1745667;82;21225;-78
2020/12/08 06:49:06;;;;;;;19.03;9.50;;;;;;;-4.58;78.82;92896.80;1823227;78;21191;-79
2020/12/08 06:51:35;;;;;;;13.33;8.33;;;;;;;-4.54;79.13;92903.59;1804300;77;21250;-77
2020/12/08 06:54:15;;;;;;;18.63;9.00;;;;;;;-4.50;78.87;92900.53;1812462;78;23482;-78
2020/12/08 06:56:43;;;;;;;16.43;9.17;;;;;;;-4.43;78.31;92900.84;1836931;77;21080;-77
2020/12/08 06:59:26;;;;;;;14.27;8.27;;;;;;;-4.37;78.30;92900.90;1786095;80;21599;-76
2020/12/08 07:01:54;;;;;;;13.70;8.23;;;;;;;-4.30;78.29;92905.73;1778278;77;21247;-78
2020/12/08 07:04:24;;;;;;;14.97;8.27;;;;;;;-4.21;77.40;92911.83;1817226;78;22188;-80
2020/12/08 07:06:53;;;;;;;15.00;8.27;;;;;;;-4.15;77.02;92912.66;1772895;78;21678;-76
2020/12/08 07:09:21;;;;;;;12.57;6.83;;;;;;;-4.10;76.63;92916.23;1788148;78;21175;-76
2020/12/08 07:12:01;;;;;;;12.20;6.63;;;;;;;-4.04;76.92;92911.78;1802096;79;21220;-81
2020/12/08 07:14:42;;;;;;;11.37;7.03;;;;;;;-4.01;77.46;92921.78;1804086;79;21250;-79
2020/12/08 07:17:10;;;;;;;18.07;9.90;;;;;;;-4.02;77.23;92919.45;1803967;78;21172;-78
2020/12/08 07:19:39;;;;;;;11.67;7.30;;;;;;;-4.06;77.58;92916.64;1732356;82;21231;-78
2020/12/08 07:22:08;;;;;;;15.83;8.10;;;;;;;-4.06;77.81;92919.82;1726820;82;21225;-77
2020/12/08 07:24:43;;;;;;;18.43;9.13;;;;;;;-4.09;77.48;92923.13;1792012;79;21172;-79
2020/12/08 07:27:12;;;;;;;19.80;9.30;;;;;;;-4.11;77.60;92927.97;1751753;80;21211;-76
2020/12/08 07:29:40;;;;;;;16.73;11.17;;;;;;;-4.06;77.44;92929.92;1727298;81;21192;-80
2020/12/08 07:32:08;;;;;;;17.27;10.23;;;;;;;-4.01;77.42;92935.06;1828398;78;21489;-76
2020/12/08 07:34:36;;;;;;;14.87;8.97;;;;;;;-3.95;77.23;92929.02;1752776;81;21219;-76
2020/12/08 07:37:07;;;;;;;16.30;10.23;;;;;;;-3.89;77.22;92931.75;1774075;79;33200;-78
2020/12/08 07:39:37;;;;;;;14.27;8.23;;;;;;;-3.87;77.02;92928.23;1758448;79;21479;-76
2020/12/08 07:42:05;;;;;;;19.83;12.17;;;;;;;-3.86;76.50;92933.77;1778768;78;21215;-77
2020/12/08 07:44:35;;;;;;;16.63;9.43;;;;;;;-3.85;76.50;92930.56;1755963;77;21886;-77
2020/12/08 07:47:03;;;;;;;12.17;7.43;;;;;;;-3.78;76.88;92934.30;1797170;79;21155;-79
2020/12/08 07:49:39;;;;;;;11.80;7.23;;;;;;;-3.72;77.15;92925.62;1820799;78;21519;-76
2020/12/08 07:52:07;;;;;;;12.43;7.70;;;;;;;-3.69;76.78;92924.95;1772568;80;21184;-78
2020/12/08 07:54:35;;;;;;;10.07;6.67;;;;;;;-3.71;76.79;92923.19;1760604;80;21172;-78
2020/12/08 07:57:03;;;;;;;14.13;8.73;;;;;;;-3.72;77.00;92921.08;1735102;80;22291;-78
2020/12/08 07:59:32;;;;;;;18.70;10.67;;;;;;;-3.69;76.73;92915.11;1755351;79;21266;-76
2020/12/08 08:02:01;;;;;;;20.47;11.90;;;;;;;-3.64;76.69;92918.16;1816986;79;21182;-78
2020/12/08 08:04:30;;;;;;;24.20;13.13;;;;;;;-3.58;75.79;92915.54;1768561;79;21118;-77
2020/12/08 08:06:58;;;;;;;17.60;11.50;;;;;;;-3.56;75.60;92917.34;1813883;78;21162;-78
2020/12/08 08:09:26;;;;;;;17.60;10.07;;;;;;;-3.54;75.47;92925.77;1817137;78;21155;-78
2020/12/08 08:11:58;;;;;;;22.77;10.00;;;;;;;-3.50;75.56;92924.05;1804270;79;21223;-76
2020/12/08 08:14:27;;;;;;;15.07;9.50;;;;;;;-3.44;75.35;92929.95;1782661;78;21697;-77
2020/12/08 08:16:57;;;;;;;16.93;9.13;;;;;;;-3.39;75.83;92927.11;1786463;76;21238;-77
2020/12/08 08:19:25;;;;;;;17.10;8.83;;;;;;;-3.35;75.90;92923.27;1847158;77;21450;-77
2020/12/08 08:21:53;;;;;;;14.07;8.50;;;;;;;-3.29;75.71;92931.30;1776038;78;21359;-75
2020/12/08 08:24:22;;;;;;;15.07;9.03;;;;;;;-3.24;75.88;92929.78;1774853;80;21678;-77
2020/12/08 08:26:50;;;;;;;16.30;9.43;;;;;;;-3.23;75.74;92926.82;1784511;78;21186;-76
2020/12/08 08:29:18;;;;;;;15.13;8.63;;;;;;;-3.19;75.75;92926.96;1780966;80;21172;-75
2020/12/08 08:31:45;;;;;;;18.60;10.73;;;;;;;-3.15;75.76;92926.55;1755135;80;21165;-76
2020/12/08 08:34:13;;;;;;;16.70;10.73;;;;;;;-3.08;75.78;92922.83;1775601;79;21169;-75
2020/12/08 08:36:52;;;;;;;18.60;11.63;;;;;;;-3.04;75.67;92926.96;1810693;78;21667;-80
2020/12/08 08:39:21;;;;;;;22.17;12.07;;;;;;;-3.06;75.67;92928.59;1772388;78;21192;-78
2020/12/08 08:41:51;;;;;;;20.33;13.33;;;;;;;-3.04;75.60;92926.96;1719474;82;21300;-75
2020/12/08 08:44:24;;;;;;;17.90;11.53;;;;;;;-3.03;75.44;92925.85;1745713;82;21224;-78
2020/12/08 08:46:52;;;;;;;16.63;10.57;;;;;;;-3.01;75.33;92927.63;1730227;82;22589;-79
2020/12/08 08:49:20;;;;;;;13.97;8.60;;;;;;;-3.02;75.02;92924.74;1807316;78;21169;-77
2020/12/08 08:51:48;;;;;;;15.70;8.50;;;;;;;-3.01;74.62;92929.76;1800151;79;21172;-80
2020/12/08 08:54:18;;;;;;;13.37;8.90;;;;;;;-2.97;74.65;92925.88;1799893;78;21123;-79
2020/12/08 08:56:47;;;;;;;15.20;9.57;;;;;;;-2.90;74.51;92931.47;1823549;78;21443;-78
2020/12/08 08:59:15;;;;;;;16.93;9.97;;;;;;;-2.81;73.91;92922.13;1759559;81;22172;-78
2020/12/08 09:01:43;;;;;;;18.20;11.40;;;;;;;-2.80;73.20;92926.33;1828646;77;21136;-81
2020/12/08 09:04:12;;;;;;;17.63;11.57;;;;;;;-2.81;73.33;92926.89;1772089;80;21192;-77
2020/12/08 09:06:40;;;;;;;18.67;10.90;;;;;;;-2.78;73.57;92923.59;1836326;77;21469;-78
2020/12/08 09:09:08;;;;;;;16.83;11.37;;;;;;;-2.76;74.04;92922.70;1761654;80;21589;-78
2020/12/08 09:11:36;;;;;;;20.10;10.87;;;;;;;-2.75;73.80;92914.93;1786122;78;21585;-81
2020/12/08 09:14:07;;;;;;;16.90;10.27;;;;;;;-2.72;73.51;92914.29;1826441;78;21194;-81
2020/12/08 09:16:35;;;;;;;16.93;9.53;;;;;;;-2.66;73.05;92916.22;1824756;78;21214;-80
2020/12/08 09:19:03;;;;;;;18.27;11.10;;;;;;;-2.62;73.21;92916.35;1799756;78;21096;-80
2020/12/08 09:21:32;;;;;;;19.90;10.37;;;;;;;-2.58;72.80;92913.27;1828094;77;21594;-80
2020/12/08 09:24:00;;;;;;;14.97;8.53;;;;;;;-2.51;72.66;92918.85;1810868;78;21383;-79
2020/12/08 09:26:28;;;;;;;19.63;10.60;;;;;;;-2.52;72.10;92914.08;1827112;77;21172;-80
2020/12/08 09:28:56;;;;;;;18.57;10.20;;;;;;;-2.54;72.24;92916.84;1821527;77;21170;-77
2020/12/08 09:31:25;;;;;;;14.10;8.77;;;;;;;-2.53;72.36;92918.39;1808539;77;21188;-83
2020/12/08 09:33:53;;;;;;;17.77;8.97;;;;;;;-2.52;72.53;92916.75;1859160;77;21115;-77
2020/12/08 09:36:21;;;;;;;19.57;10.43;;;;;;;-2.50;72.59;92917.74;1789051;80;21250;-78
2020/12/08 09:38:49;;;;;;;20.47;10.40;;;;;;;-2.46;72.76;92905.34;1851846;77;21171;-80
2020/12/08 09:41:19;;;;;;;21.53;11.80;;;;;;;-2.45;72.58;92904.22;1752442;81;21336;-76
2020/12/08 09:43:47;;;;;;;17.33;9.37;;;;;;;-2.43;72.35;92902.58;1839964;77;21148;-77
2020/12/08 09:46:15;;;;;;;18.90;10.57;;;;;;;-2.41;72.60;92902.46;1839545;77;21586;-79
2020/12/08 09:48:43;;;;;;;24.63;12.87;;;;;;;-2.39;72.43;92906.92;1792849;78;21701;-77
2020/12/08 09:51:11;;;;;;;18.73;10.27;;;;;;;-2.35;72.51;92901.17;1762674;78;21342;-76
2020/12/08 09:53:41;;;;;;;18.90;11.03;;;;;;;-2.29;72.10;92898.55;1782072;80;21150;-82
2020/12/08 09:56:09;;;;;;;18.63;9.90;;;;;;;-2.29;71.99;92898.55;1793875;78;21178;-77
2020/12/08 09:58:37;;;;;;;17.10;10.10;;;;;;;-2.26;72.03;92895.75;1768035;79;21145;-76
2020/12/08 10:01:06;;;;;;;22.37;11.87;;;;;;;-2.22;72.10;92897.46;1795317;78;21666;-79
2020/12/08 10:03:38;;;;;;;24.17;13.53;;;;;;;-2.14;71.55;92899.02;1813554;77;21120;-78
2020/12/08 10:06:07;;;;;;;29.20;15.40;;;;;;;-2.12;71.34;92900.81;1832610;77;21156;-80
2020/12/08 10:08:35;;;;;;;25.83;14.40;;;;;;;-2.12;71.55;92897.59;1799033;77;21179;-79
2020/12/08 10:11:03;;;;;;;26.80;15.07;;;;;;;-2.10;71.79;92895.95;1805436;79;21159;-76
2020/12/08 10:13:33;;;;;;;27.27;14.20;;;;;;;-2.11;72.22;92896.47;1746493;79;21281;-76
2020/12/08 10:16:01;;;;;;;21.40;13.40;;;;;;;-2.02;72.16;92895.08;1730606;81;21205;-78
2020/12/08 10:18:29;;;;;;;22.20;11.60;;;;;;;-1.97;72.15;92897.52;1743533;77;21159;-77
2020/12/08 10:20:59;;;;;;;18.30;10.40;;;;;;;-1.91;72.08;92893.55;1802662;78;21190;-81
2020/12/08 10:23:27;;;;;;;17.60;10.97;;;;;;;-1.88;71.36;92894.23;1771204;80;21202;-77
2020/12/08 10:25:55;;;;;;;21.27;11.10;;;;;;;-1.84;71.05;92887.66;1762733;79;22625;-76
2020/12/08 10:28:23;;;;;;;17.23;10.67;;;;;;;-1.83;70.85;92889.23;1769112;79;21687;-78
2020/12/08 10:30:52;;;;;;;19.30;10.90;;;;;;;-1.86;71.20;92886.67;1778740;79;21264;-76
2020/12/08 10:33:20;;;;;;;22.53;11.97;;;;;;;-1.86;72.02;92896.00;1805498;78;21452;-79
2020/12/08 10:35:49;;;;;;;23.93;13.17;;;;;;;-1.86;71.22;92884.56;1802419;78;21170;-80
2020/12/08 10:38:17;;;;;;;21.63;12.77;;;;;;;-1.85;71.09;92882.89;1798588;78;21190;-75
2020/12/08 10:40:45;;;;;;;19.20;11.90;;;;;;;-1.83;71.58;92883.91;1791663;78;21596;-77
2020/12/08 10:43:14;;;;;;;20.00;11.90;;;;;;;-1.82;71.86;92886.79;1801776;79;21093;-79
2020/12/08 10:45:44;;;;;;;18.70;11.83;;;;;;;-1.78;71.79;92883.69;1790186;78;21086;-77
2020/12/08 10:48:12;;;;;;;20.30;11.57;;;;;;;-1.74;71.80;92889.91;1764030;78;21291;-76
2020/12/08 10:50:41;;;;;;;22.10;11.13;;;;;;;-1.69;71.70;92887.58;1794183;79;22458;-74
2020/12/08 10:53:09;;;;;;;17.50;10.60;;;;;;;-1.65;71.78;92873.84;1798252;78;21125;-74
2020/12/08 10:55:37;;;;;;;13.23;8.20;;;;;;;-1.61;71.76;92887.50;1774329;80;21168;-79
2020/12/08 10:58:06;;;;;;;16.73;9.07;;;;;;;-1.60;71.23;92888.28;1772154;80;21611;-77
2020/12/08 11:00:34;;;;;;;17.57;9.80;;;;;;;-1.62;71.22;92883.26;1756780;81;21348;-76
2020/12/08 11:03:02;;;;;;;16.77;10.53;;;;;;;-1.57;71.30;92887.62;1825665;78;21653;-81
2020/12/08 11:05:32;;;;;;;21.93;12.63;;;;;;;-1.51;71.90;92885.71;1764483;78;21643;-78
2020/12/08 11:08:00;;;;;;;22.10;11.87;;;;;;;-1.46;71.62;92884.74;1786965;78;21191;-77
2020/12/08 11:10:28;;;;;;;21.77;12.73;;;;;;;-1.44;71.48;92884.39;1759771;80;21502;-78
2020/12/08 11:12:56;;;;;;;35.80;18.82;;;;;;;-1.44;71.71;92891.84;1750248;80;21178;-76
2020/12/08 11:15:24;;;;;;;18.20;10.77;;;;;;;-1.44;71.78;92893.17;1762887;79;21213;-77
2020/12/08 11:17:52;;;;;;;28.47;14.60;;;;;;;-1.45;71.66;92890.29;1793310;79;21905;-78
2020/12/08 11:20:21;;;;;;;26.93;13.57;;;;;;;-1.45;71.71;92884.95;1797211;77;21204;-77
2020/12/08 11:22:49;;;;;;;24.63;12.30;;;;;;;-1.44;72.05;92897.73;1825075;77;21021;-77
2020/12/08 11:25:17;;;;;;;26.70;14.43;;;;;;;-1.44;71.32;92889.17;1831022;77;21145;-79
2020/12/08 11:27:45;;;;;;;22.67;11.73;;;;;;;-1.48;70.93;92883.72;1809743;77;21189;-79
2020/12/08 11:30:14;;;;;;;25.73;14.37;;;;;;;-1.49;70.65;92888.84;1783684;80;21213;-79
2020/12/08 11:32:43;;;;;;;19.83;10.77;;;;;;;-1.55;70.76;92884.05;1761560;77;21262;-78
2020/12/08 11:35:11;;;;;;;19.10;11.17;;;;;;;-1.60;70.48;92878.39;1762572;80;21188;-78